Time;durP1;ratioP1;P1;durP2;ratioP2;P2;SDS_P1;SDS_P2;PMS_P1;PMS_P2;Temp;Humidity;BMP_temperature;BMP_pressure;BME280_temperature;BME280_humidity;BME280_pressure;Samples;Min_cycle;Max_cycle;Signal;HPM_P1;HPM_P2
2023/03/13 00:00:51;;;;;;;;;;;9.50;99.90;;;8.94;100.00;97014.38;4985693;28;1413;-70
2023/03/13 00:03:18;;;;;;;;;;;9.50;99.90;;;8.96;100.00;96999.63;4991813;28;1386;-69
2023/03/13 00:05:45;;;;;;;;;;;9.50;99.90;;;8.97;100.00;97025.44;4991741;28;1399;-70
2023/03/13 00:08:12;;;;;;;;;;;9.50;99.90;;;8.95;100.00;97001.38;4989212;28;1505;-69
2023/03/13 00:10:40;;;;;;;;;;;9.60;99.90;;;9.05;100.00;96988.00;4988562;28;1405;-69
2023/03/13 00:13:07;;;;;;;;;;;9.60;99.90;;;9.11;100.00;96979.97;4989507;28;1987;-69
2023/03/13 00:15:34;;;;;;;;;;;9.60;99.90;;;9.03;100.00;96969.13;4989437;28;1386;-70
2023/03/13 00:18:01;;;;;;;;;;;9.60;99.90;;;9.04;100.00;96981.16;4986811;28;1414;-70
2023/03/13 00:20:28;;;;;;;;;;;9.60;99.90;;;9.09;100.00;96958.50;5001760;28;1550;-70
2023/03/13 00:22:55;;;;;;;;;;;9.60;99.90;;;9.15;100.00;96963.38;5004807;28;1481;-71
2023/03/13 00:25:23;;;;;;;;;;;9.70;99.90;;;9.13;100.00;96963.44;4989506;28;1340;-70
2023/03/13 00:27:50;;;;;;;;;;;9.70;99.90;;;9.20;100.00;96972.59;4987839;28;1489;-70
2023/03/13 00:30:17;;;;;;;;;;;9.70;99.90;;;9.31;100.00;96958.31;5003382;28;1937;-70
2023/03/13 00:32:45;;;;;;;;;;;9.80;99.90;;;9.29;100.00;96962.75;4987270;28;1954;-70
2023/03/13 00:35:13;;;;;;;;;;;9.80;99.90;;;9.42;100.00;96937.94;4971746;28;1431;-70
2023/03/13 00:37:41;;;;;;;;;;;9.90;99.90;;;9.36;100.00;96961.53;4990532;28;1610;-70
2023/03/13 00:40:09;;;;;;;;;;;9.90;99.90;;;9.34;100.00;96927.09;4988392;28;1590;-69
2023/03/13 00:42:36;;;;;;;;;;;10.00;99.90;;;9.40;100.00;96934.56;5006593;28;1471;-70
2023/03/13 00:45:03;;;;;;;;;;;10.00;99.90;;;9.37;100.00;96919.16;5001411;28;1596;-70
2023/03/13 00:47:30;;;;;;;;;;;10.00;99.90;;;9.41;100.00;96929.31;4993939;28;1377;-70
2023/03/13 00:49:57;;;;;;;;;;;10.00;99.90;;;9.48;100.00;96923.84;4989317;28;1406;-69
2023/03/13 00:52:26;;;;;;;;;;;10.10;99.90;;;9.47;100.00;96924.75;4987764;28;1406;-70
2023/03/13 00:54:54;;;;;;;;;;;10.00;99.90;;;9.50;100.00;96915.06;4990425;28;1982;-70
2023/03/13 00:57:21;;;;;;;;;;;10.00;99.90;;;9.43;100.00;96903.34;4984174;28;1399;-71
2023/03/13 00:59:48;;;;;;;;;;;10.00;99.90;;;9.55;100.00;96909.66;4986567;28;1577;-69
2023/03/13 01:02:15;;;;;;;;;;;10.00;99.90;;;9.49;100.00;96913.41;4991399;28;1434;-70
2023/03/13 01:04:42;;;;;;;;;;;10.00;99.90;;;9.40;100.00;96904.31;4981499;28;1429;-70
2023/03/13 01:07:08;;;;;;;;;;;10.00;99.90;;;9.43;100.00;96905.94;4988865;28;1462;-70
2023/03/13 01:09:35;;;;;;;;;;;10.00;99.90;;;9.42;100.00;96892.16;4990407;28;1482;-71
2023/03/13 01:12:03;;;;;;;;;;;10.00;99.90;;;9.48;100.00;96929.00;4986175;28;1490;-70
2023/03/13 01:14:29;;;;;;;;;;;10.00;99.90;;;9.43;100.00;96906.75;4987824;28;1906;-70
2023/03/13 01:16:56;;;;;;;;;;;10.10;99.90;;;9.57;100.00;96889.69;4990357;28;1366;-70
2023/03/13 01:19:23;;;;;;;;;;;10.00;99.90;;;9.58;100.00;96905.19;4989127;28;1359;-70
2023/03/13 01:21:50;;;;;;;;;;;10.00;99.90;;;9.61;100.00;96905.03;4989078;28;1464;-70
2023/03/13 01:24:19;;;;;;;;;;;10.10;99.90;;;9.56;100.00;96895.81;4990359;28;1667;-70
2023/03/13 01:26:46;;;;;;;;;;;10.20;99.90;;;9.54;100.00;96902.81;4990571;28;1467;-70
2023/03/13 01:29:13;;;;;;;;;;;10.10;99.90;;;9.52;100.00;96891.69;4973577;28;1512;-71
2023/03/13 01:31:42;;;;;;;;;;;10.00;99.90;;;9.38;100.00;96887.19;4989549;28;1462;-71
2023/03/13 01:34:09;;;;;;;;;;;9.90;99.90;;;9.40;100.00;96878.44;4990201;28;1985;-70
2023/03/13 01:36:37;;;;;;;;;;;9.80;99.90;;;9.28;100.00;96910.09;5005687;28;1512;-70
2023/03/13 01:39:04;;;;;;;;;;;9.70;99.90;;;9.15;100.00;96894.31;4986714;28;1516;-70
2023/03/13 01:41:31;;;;;;;;;;;9.60;99.90;;;8.99;100.00;96917.50;4983786;28;1536;-71
2023/03/13 01:43:58;;;;;;;;;;;9.40;99.90;;;8.98;100.00;96910.63;4986096;28;1363;-71
2023/03/13 01:46:27;;;;;;;;;;;9.30;99.90;;;8.88;100.00;96921.50;4987790;28;1391;-71
2023/03/13 01:49:12;;;;;;;;;;;9.30;99.90;;;8.87;100.00;96924.97;4988966;28;1707;-71
2023/03/13 01:52:00;;;;;;;;;;;9.30;99.90;;;8.79;100.00;96915.00;4989192;28;1533;-71
2023/03/13 01:54:33;;;;;;;;;;;9.20;99.90;;;8.79;100.00;96943.47;4986895;28;1915;-71
2023/03/13 01:57:05;;;;;;;;;;;9.10;99.90;;;8.72;100.00;96948.06;4982980;28;1402;-71
2023/03/13 01:59:39;;;;;;;;;;;9.10;99.90;;;8.75;100.00;96967.78;4987247;28;1389;-71
2023/03/13 02:02:06;;;;;;;;;;;9.10;99.90;;;8.74;100.00;96941.09;4985661;28;1514;-71
2023/03/13 02:04:40;;;;;;;;;;;9.10;99.90;;;8.71;100.00;96930.03;4979836;28;1433;-71
2023/03/13 02:07:11;;;;;;;;;;;9.00;99.90;;;8.62;100.00;96922.69;4988935;28;1470;-71
2023/03/13 02:09:40;;;;;;;;;;;9.00;99.90;;;8.59;100.00;96911.56;5003451;28;1414;-70
2023/03/13 02:12:14;;;;;;;;;;;9.00;99.90;;;8.51;100.00;96910.25;4969863;28;1603;-71
2023/03/13 02:14:44;;;;;;;;;;;8.90;99.90;;;8.53;100.00;96904.09;4983871;28;1967;-70
2023/03/13 02:17:12;;;;;;;;;;;8.90;99.90;;;8.46;100.00;96896.66;4988637;28;1382;-70
2023/03/13 02:19:43;;;;;;;;;;;8.90;99.90;;;8.51;100.00;96892.97;4985879;28;1543;-70
2023/03/13 02:22:38;;;;;;;;;;;8.90;99.90;;;8.51;100.00;96895.56;4985054;28;1394;-70
2023/03/13 02:25:22;;;;;;;;;;;8.80;99.90;;;8.56;100.00;96903.13;4980186;28;1430;-70
2023/03/13 02:27:56;;;;;;;;;;;8.80;99.90;;;8.36;100.00;96914.31;4983365;28;1398;-70
2023/03/13 02:30:23;;;;;;;;;;;8.90;99.90;;;8.41;100.00;96904.63;4989281;28;1451;-69
2023/03/13 02:32:53;;;;;;;;;;;8.90;99.90;;;8.46;100.00;96889.75;4982313;28;1375;-70
2023/03/13 02:35:21;;;;;;;;;;;9.00;99.90;;;8.41;100.00;96912.38;4982375;28;1987;-71
2023/03/13 02:37:57;;;;;;;;;;;9.00;99.90;;;8.47;100.00;96898.34;5000250;28;1609;-71
2023/03/13 02:40:27;;;;;;;;;;;8.90;99.90;;;8.45;100.00;96905.34;4980671;28;1380;-70
2023/03/13 02:42:55;;;;;;;;;;;9.00;99.90;;;8.48;100.00;96867.22;4981764;28;1512;-71
2023/03/13 02:45:22;;;;;;;;;;;9.00;99.90;;;8.43;100.00;96886.47;4989285;28;1407;-71
2023/03/13 02:47:49;;;;;;;;;;;9.00;99.90;;;8.37;100.00;96853.94;4988009;28;1374;-70
2023/03/13 02:50:16;;;;;;;;;;;9.00;99.90;;;8.36;100.00;96860.84;4988211;28;1578;-70
2023/03/13 02:52:55;;;;;;;;;;;9.00;99.90;;;9.43;100.00;96913.69;4986571;28;1453;-70
2023/03/13 02:55:30;;;;;;;;;;;9.00;99.90;;;9.78;100.00;96976.78;4987987;28;1989;-70
2023/03/13 02:57:57;;;;;;;;;;;9.10;99.90;;;9.72;100.00;96899.31;4984796;28;1474;-70
2023/03/13 03:00:25;;;;;;;;;;;9.10;99.90;;;11.25;100.00;96951.88;4985283;28;1542;-70
2023/03/13 03:02:53;;;;;;;;;;;9.00;99.90;;;9.61;100.00;96949.06;4986307;28;1446;-71
2023/03/13 03:05:21;;;;;;;;;;;9.10;99.90;;;11.41;100.00;96988.25;5000841;28;1525;-70
2023/03/13 03:07:49;;;;;;;;;;;9.10;99.90;;;10.99;100.00;96940.31;4987361;28;1379;-70
2023/03/13 03:10:17;;;;;;;;;;;9.00;99.90;;;10.48;100.00;96898.91;4986272;28;1838;-70
2023/03/13 03:12:43;;;;;;;;;;;9.10;99.90;;;10.82;100.00;96910.91;4987736;28;1385;-70
2023/03/13 03:15:11;;;;;;;;;;;9.10;99.90;;;10.62;100.00;96875.63;4985177;28;1906;-70
2023/03/13 03:17:38;;;;;;;;;;;9.10;99.90;;;10.73;100.00;96905.38;4980418;28;1434;-71
2023/03/13 03:20:10;;;;;;;;;;;9.10;99.90;;;10.56;100.00;96907.13;4984850;28;1616;-71
2023/03/13 03:22:39;;;;;;;;;;;9.10;99.90;;;11.10;100.00;96915.41;4987765;28;1386;-70
2023/03/13 03:25:08;;;;;;;;;;;9.10;99.90;;;10.82;100.00;96923.88;5004461;28;1406;-70
2023/03/13 03:27:35;;;;;;;;;;;9.10;99.90;;;10.68;100.00;96921.19;4983493;28;1447;-70
2023/03/13 03:30:04;;;;;;;;;;;9.10;99.90;;;10.49;100.00;96910.09;4976222;28;1498;-70
2023/03/13 03:32:31;;;;;;;;;;;9.10;99.90;;;10.54;100.00;96885.59;4968378;28;1306;-70
2023/03/13 03:34:58;;;;;;;;;;;9.20;99.90;;;10.80;100.00;96870.38;4986650;28;1960;-70
2023/03/13 03:37:25;;;;;;;;;;;9.20;99.90;;;10.71;100.00;96860.50;4980636;28;1637;-70
2023/03/13 03:39:52;;;;;;;;;;;9.30;99.90;;;11.10;100.00;96808.94;4983970;28;1378;-70
2023/03/13 03:42:19;;;;;;;;;;;9.20;99.90;;;11.40;100.00;96843.63;4986095;28;1390;-70
2023/03/13 03:44:45;;;;;;;;;;;9.30;99.90;;;10.83;100.00;96813.94;4985185;28;1577;-70
2023/03/13 03:47:12;;;;;;;;;;;9.30;99.90;;;10.84;100.00;96859.75;4985443;28;1593;-70
2023/03/13 03:49:40;;;;;;;;;;;9.30;99.90;;;10.55;100.00;96855.31;4985221;28;1665;-70
2023/03/13 03:52:06;;;;;;;;;;;9.40;99.90;;;10.51;100.00;96818.28;4986944;28;1509;-70
2023/03/13 03:54:34;;;;;;;;;;;9.30;99.90;;;10.63;100.00;96868.72;4972122;28;1942;-70
2023/03/13 03:57:00;;;;;;;;;;;9.40;99.90;;;10.45;100.00;96865.34;4987095;28;1363;-70
2023/03/13 03:59:27;;;;;;;;;;;9.40;99.90;;;10.63;100.00;96858.34;4986982;28;1487;-70
2023/03/13 04:01:55;;;;;;;;;;;9.40;99.90;;;10.56;100.00;96876.00;4981681;28;1605;-70
2023/03/13 04:04:22;;;;;;;;;;;9.40;99.90;;;10.73;100.00;96848.28;4987050;28;1346;-70
2023/03/13 04:06:49;;;;;;;;;;;9.40;99.90;;;11.02;100.00;96851.88;4971186;28;1423;-70
2023/03/13 04:09:15;;;;;;;;;;;9.50;99.90;;;10.97;100.00;96831.34;4982403;28;1432;-70
2023/03/13 04:11:42;;;;;;;;;;;9.50;99.90;;;10.95;100.00;96812.41;4980229;28;1367;-71
2023/03/13 04:14:09;;;;;;;;;;;9.50;99.90;;;10.85;100.00;96817.25;4980687;28;1992;-71
2023/03/13 04:16:36;;;;;;;;;;;9.50;99.90;;;10.78;100.00;96822.91;4987933;28;1662;-69
2023/03/13 04:19:03;;;;;;;;;;;9.50;99.90;;;10.85;100.00;96804.28;4982533;28;1483;-70
2023/03/13 04:21:30;;;;;;;;;;;9.50;99.90;;;10.99;100.00;96813.91;4981779;28;1549;-69
2023/03/13 04:23:57;;;;;;;;;;;9.70;99.90;;;10.96;100.00;96785.50;4976844;28;1348;-70
2023/03/13 04:26:24;;;;;;;;;;;9.60;99.90;;;10.92;100.00;96822.94;4988127;28;1359;-71
2023/03/13 04:28:50;;;;;;;;;;;9.60;99.90;;;11.16;100.00;96763.59;4977015;28;1441;-70
2023/03/13 04:31:17;;;;;;;;;;;9.60;99.90;;;11.10;100.00;96761.34;4984508;28;1597;-70
2023/03/13 04:33:44;;;;;;;;;;;9.60;99.90;;;10.89;100.00;96753.88;4986975;28;1911;-71
2023/03/13 04:36:11;;;;;;;;;;;9.70;99.90;;;10.83;100.00;96775.00;4986334;28;1391;-71
2023/03/13 04:38:38;;;;;;;;;;;9.70;99.90;;;10.85;100.00;96788.72;4984653;28;1526;-70
2023/03/13 04:41:05;;;;;;;;;;;9.70;99.90;;;10.83;100.00;96811.34;4989514;28;1454;-70
2023/03/13 04:43:32;;;;;;;;;;;9.70;99.90;;;10.84;100.00;96819.97;4988893;28;1335;-70
2023/03/13 04:45:59;;;;;;;;;;;9.80;99.90;;;10.83;100.00;96836.44;4989006;28;1503;-70
2023/03/13 04:48:26;;;;;;;;;;;9.70;99.90;;;10.88;100.00;96801.53;4985944;28;1568;-70
2023/03/13 04:50:53;;;;;;;;;;;9.80;99.90;;;10.94;100.00;96792.56;4984113;28;1449;-70
2023/03/13 04:53:20;;;;;;;;;;;9.80;99.90;;;10.96;100.00;96801.09;4989523;28;1443;-70
2023/03/13 04:55:48;;;;;;;;;;;9.80;99.90;;;10.93;100.00;96813.44;4987501;28;1903;-70
2023/03/13 04:58:15;;;;;;;;;;;9.90;99.90;;;10.71;100.00;96834.53;4987748;28;1640;-70
2023/03/13 05:00:42;;;;;;;;;;;9.80;99.90;;;10.85;100.00;96813.84;4986962;28;1593;-70
2023/03/13 05:03:09;;;;;;;;;;;9.80;99.90;;;10.87;100.00;96843.97;4980096;28;1560;-70
2023/03/13 05:05:36;;;;;;;;;;;9.70;99.90;;;11.23;100.00;96795.25;4986153;28;1394;-70
2023/03/13 05:08:03;;;;;;;;;;;9.80;99.90;;;10.91;100.00;96799.69;4989273;28;1418;-69
2023/03/13 05:10:31;;;;;;;;;;;9.80;99.90;;;10.85;100.00;96813.84;4984293;28;1319;-71
2023/03/13 05:12:57;;;;;;;;;;;9.80;99.90;;;10.66;100.00;96812.25;4989998;28;1469;-70
2023/03/13 05:15:24;;;;;;;;;;;9.70;99.90;;;10.62;100.00;96799.53;4988541;28;1911;-70
2023/03/13 05:17:51;;;;;;;;;;;9.80;99.90;;;10.57;100.00;96833.53;4987640;28;1421;-70
2023/03/13 05:20:20;;;;;;;;;;;9.80;99.90;;;10.64;100.00;96798.53;4989278;28;1398;-70
2023/03/13 05:22:47;;;;;;;;;;;9.80;99.90;;;10.54;100.00;96801.75;4987660;28;1406;-70
2023/03/13 05:25:14;;;;;;;;;;;9.70;99.90;;;10.92;100.00;96785.78;4990387;28;1383;-70
2023/03/13 05:27:41;;;;;;;;;;;9.70;99.90;;;10.90;100.00;96806.63;4992941;28;1439;-70
2023/03/13 05:30:08;;;;;;;;;;;9.70;99.90;;;10.60;100.00;96830.75;4987241;28;1447;-71
2023/03/13 05:32:36;;;;;;;;;;;9.80;99.90;;;10.48;100.00;96792.53;4986156;28;1486;-70
2023/03/13 05:35:03;;;;;;;;;;;9.90;99.90;;;10.81;100.00;96808.00;4986876;28;2000;-69
2023/03/13 05:37:30;;;;;;;;;;;9.80;99.90;;;10.64;100.00;96800.31;4989041;28;1507;-69
2023/03/13 05:39:57;;;;;;;;;;;9.90;99.90;;;10.74;100.00;96823.97;4987895;28;1442;-70
2023/03/13 05:42:25;;;;;;;;;;;9.90;99.90;;;10.85;100.00;96800.84;4988938;28;1511;-70
2023/03/13 05:44:52;;;;;;;;;;;9.90;99.90;;;10.82;100.00;96793.25;4985837;28;1418;-70
2023/03/13 05:47:19;;;;;;;;;;;9.90;99.90;;;10.87;100.00;96750.53;4987717;28;1438;-69
2023/03/13 05:49:46;;;;;;;;;;;9.90;99.90;;;11.10;100.00;96779.53;4987965;28;1407;-70
2023/03/13 05:52:13;;;;;;;;;;;9.90;99.90;;;11.63;100.00;96800.72;4988323;28;1383;-70
2023/03/13 05:54:40;;;;;;;;;;;10.00;99.90;;;11.22;100.00;96814.34;4989025;28;2017;-70
2023/03/13 05:57:07;;;;;;;;;;;10.00;99.90;;;11.31;100.00;96800.81;4985104;28;1398;-70
2023/03/13 05:59:37;;;;;;;;;;;10.00;99.90;;;11.19;100.00;96801.53;4978188;28;1494;-70
2023/03/13 06:02:04;;;;;;;;;;;10.00;99.90;;;11.08;100.00;96818.59;4994089;28;1408;-70
2023/03/13 06:04:31;;;;;;;;;;;10.00;99.90;;;11.12;100.00;96813.22;4980082;28;1620;-70
2023/03/13 06:06:58;;;;;;;;;;;10.00;99.90;;;11.12;100.00;96821.00;4978564;28;1383;-70
2023/03/13 06:09:25;;;;;;;;;;;10.00;99.90;;;11.13;100.00;96828.72;4989130;28;1450;-69
2023/03/13 06:11:52;;;;;;;;;;;10.10;99.90;;;11.07;100.00;96797.91;4984899;28;1615;-69
2023/03/13 06:14:19;;;;;;;;;;;10.00;99.90;;;11.16;100.00;96796.53;4980876;28;1911;-70
2023/03/13 06:16:46;;;;;;;;;;;10.00;99.90;;;11.28;100.00;96760.28;4985334;28;1521;-70
2023/03/13 06:19:13;;;;;;;;;;;10.00;99.90;;;11.13;100.00;96753.41;4984944;28;1758;-70
2023/03/13 06:21:40;;;;;;;;;;;10.10;99.90;;;11.14;100.00;96747.28;4987241;28;1604;-71
2023/03/13 06:24:10;;;;;;;;;;;10.10;99.90;;;11.14;100.00;96759.44;4983902;28;1695;-70
2023/03/13 06:26:37;;;;;;;;;;;10.10;99.90;;;11.24;100.00;96776.13;4981010;28;1386;-70
2023/03/13 06:29:04;;;;;;;;;;;10.10;99.90;;;10.99;100.00;96797.47;5000974;28;1591;-70
2023/03/13 06:31:31;;;;;;;;;;;10.10;99.90;;;11.06;100.00;96772.84;4987944;28;1331;-70
2023/03/13 06:33:58;;;;;;;;;;;10.10;99.90;;;11.34;100.00;96753.06;4989652;28;2276;-70
2023/03/13 06:36:25;;;;;;;;;;;10.20;99.90;;;10.60;100.00;96732.16;4989424;28;1898;-70
2023/03/13 06:38:52;;;;;;;;;;;10.20;99.90;;;10.71;100.00;96708.19;4995621;28;1519;-70
2023/03/13 06:41:19;;;;;;;;;;;10.20;99.90;;;10.79;100.00;96744.94;4994468;28;1589;-70
2023/03/13 06:43:46;;;;;;;;;;;10.30;99.90;;;10.77;100.00;96762.38;4985045;28;1394;-70
2023/03/13 06:46:18;;;;;;;;;;;10.30;99.90;;;10.82;100.00;96731.78;4988771;28;1407;-70
2023/03/13 06:48:45;;;;;;;;;;;10.30;99.90;;;10.94;100.00;96737.19;4988786;28;1362;-70
2023/03/13 06:51:14;;;;;;;;;;;10.40;99.90;;;10.94;100.00;96745.81;4988867;28;1446;-70
2023/03/13 06:53:44;;;;;;;;;;;10.30;99.90;;;10.87;100.00;96747.09;4988886;28;1381;-70
2023/03/13 06:56:11;;;;;;;;;;;10.30;99.90;;;10.93;100.00;96757.13;4987344;28;1991;-70
2023/03/13 06:58:39;;;;;;;;;;;10.50;99.90;;;11.00;100.00;96701.31;4987364;28;1795;-70
2023/03/13 07:01:08;;;;;;;;;;;10.40;99.90;;;10.95;100.00;96725.88;4988715;28;1589;-70
2023/03/13 07:03:35;;;;;;;;;;;10.50;99.90;;;11.02;100.00;96743.63;4999594;28;1441;-70
2023/03/13 07:06:04;;;;;;;;;;;10.60;99.90;;;11.10;100.00;96740.56;4979828;28;1446;-70
2023/03/13 07:08:31;;;;;;;;;;;10.70;99.90;;;11.09;100.00;96685.19;4987706;28;1446;-71
2023/03/13 07:11:01;;;;;;;;;;;10.70;99.90;;;11.17;100.00;96728.91;4978772;28;1406;-70
2023/03/13 07:13:28;;;;;;;;;;;10.60;99.90;;;11.07;100.00;96710.44;4985495;28;1368;-70
2023/03/13 07:15:59;;;;;;;;;;;10.60;99.90;;;11.08;100.00;96722.50;4986724;28;1989;-69
2023/03/13 07:18:25;;;;;;;;;;;10.70;99.90;;;11.23;100.00;96718.16;4984166;28;1403;-69
2023/03/13 07:20:57;;;;;;;;;;;10.70;99.90;;;11.28;100.00;96700.53;4986592;28;1422;-70
2023/03/13 07:23:26;;;;;;;;;;;10.60;99.90;;;11.18;100.00;96720.19;4983444;28;1410;-70
2023/03/13 07:25:54;;;;;;;;;;;10.70;99.90;;;11.23;100.00;96725.94;5000351;28;1528;-70
2023/03/13 07:28:22;;;;;;;;;;;10.60;99.90;;;11.18;100.00;96738.38;4985191;28;1374;-71
2023/03/13 07:30:49;;;;;;;;;;;10.60;99.90;;;11.10;100.00;96740.56;4979587;28;1136;-70
2023/03/13 07:33:16;;;;;;;;;;;10.70;99.90;;;11.20;100.00;96718.34;4985973;28;1418;-70
2023/03/13 07:35:48;;;;;;;;;;;10.70;99.90;;;11.03;100.00;96705.50;4985326;28;1910;-71
2023/03/13 07:38:15;;;;;;;;;;;10.60;99.90;;;11.19;100.00;96736.59;4959588;28;4946;-71
2023/03/13 07:40:53;;;;;;;;;;;10.60;99.90;;;11.19;100.00;96688.09;4985891;28;4758;-71
2023/03/13 07:43:20;;;;;;;;;;;10.60;99.90;;;11.30;100.00;96698.69;4987540;28;1228;-70
2023/03/13 07:46:00;;;;;;;;;;;10.60;99.90;;;11.24;100.00;96704.25;4986583;28;1048;-71
2023/03/13 07:48:30;;;;;;;;;;;10.60;99.90;;;11.10;100.00;96684.25;4985237;28;1997;-71
2023/03/13 07:50:57;;;;;;;;;;;10.50;99.90;;;11.27;100.00;96677.25;4983139;28;1499;-70
2023/03/13 07:53:27;;;;;;;;;;;10.60;99.90;;;11.28;100.00;96715.28;4988669;28;1217;-70
2023/03/13 07:56:05;;;;;;;;;;;10.60;99.90;;;11.32;100.00;96700.38;4978011;28;1956;-70
2023/03/13 07:58:34;;;;;;;;;;;10.60;99.90;;;11.24;100.00;96693.88;4986797;28;1356;-70
2023/03/13 08:01:25;;;;;;;;;;;10.60;99.90;;;11.24;100.00;96691.28;4988365;28;1112;-71
2023/03/13 08:03:57;;;;;;;;;;;10.60;99.90;;;11.25;100.00;96679.13;5001058;28;1585;-70
2023/03/13 08:06:25;;;;;;;;;;;10.60;99.90;;;11.13;100.00;96701.47;4986529;28;1364;-71
2023/03/13 08:08:56;;;;;;;;;;;10.60;99.90;;;11.13;100.00;96718.78;4985847;28;1358;-71
2023/03/13 08:11:27;;;;;;;;;;;10.60;99.90;;;11.25;100.00;96750.06;5001504;28;982;-71
2023/03/13 08:13:57;;;;;;;;;;;10.70;99.90;;;11.09;100.00;96739.75;4987489;28;1038;-70
2023/03/13 08:16:29;;;;;;;;;;;10.70;99.90;;;11.22;100.00;96742.47;4999288;28;1903;-71
2023/03/13 08:18:57;;;;;;;;;;;10.60;99.90;;;11.26;100.00;96722.34;4976690;28;1300;-70
2023/03/13 08:21:32;;;;;;;;;;;10.70;99.90;;;11.29;100.00;96720.41;4979066;28;1365;-69
2023/03/13 08:24:04;;;;;;;;;;;10.70;99.90;;;11.30;100.00;96723.81;4988362;28;1462;-71
2023/03/13 08:26:33;;;;;;;;;;;10.70;99.90;;;11.52;100.00;96711.22;4984828;28;1072;-71
2023/03/13 08:29:06;;;;;;;;;;;10.70;99.90;;;11.44;100.00;96733.41;4991294;28;1260;-70
2023/03/13 08:31:35;;;;;;;;;;;10.90;99.90;;;11.56;100.00;96711.88;5008157;28;1155;-71
2023/03/13 08:34:03;;;;;;;;;;;10.90;99.90;;;11.63;100.00;96694.13;4990790;28;1069;-71
2023/03/13 08:36:34;;;;;;;;;;;11.00;99.90;;;11.63;100.00;96696.72;4990913;28;1898;-70
2023/03/13 08:39:10;;;;;;;;;;;11.00;99.90;;;11.57;100.00;96710.97;5005286;28;1260;-70
2023/03/13 08:41:39;;;;;;;;;;;11.10;99.90;;;11.57;100.00;96718.75;4988858;28;1213;-71
2023/03/13 08:44:08;;;;;;;;;;;11.10;99.90;;;11.41;100.00;96708.44;4990150;28;1446;-71
2023/03/13 08:46:36;;;;;;;;;;;11.30;99.90;;;11.49;100.00;96705.38;4990410;28;1364;-71
2023/03/13 08:49:07;;;;;;;;;;;11.30;99.90;;;11.40;100.00;96718.91;4979079;28;1564;-71
2023/03/13 08:51:34;;;;;;;;;;;11.30;99.90;;;11.41;100.00;96700.66;4989393;28;1569;-71
2023/03/13 08:54:02;;;;;;;;;;;11.40;99.90;;;11.59;100.00;96687.47;4976252;28;4537;-71
2023/03/13 08:56:30;;;;;;;;;;;11.30;99.90;;;11.39;100.00;96725.06;5005169;28;1976;-71
2023/03/13 08:58:59;;;;;;;;;;;11.30;99.90;;;11.42;100.00;96691.91;4988054;28;1426;-70
2023/03/13 09:01:29;;;;;;;;;;;11.30;99.90;;;11.44;100.00;96710.00;4990903;28;1446;-70
2023/03/13 09:03:56;;;;;;;;;;;11.30;99.90;;;11.51;100.00;96687.94;4988032;28;1530;-71
2023/03/13 09:06:23;;;;;;;;;;;11.30;99.90;;;11.56;100.00;96685.88;4987971;28;1383;-71
2023/03/13 09:08:50;;;;;;;;;;;11.30;99.90;;;11.51;100.00;96701.75;4971465;28;1525;-70
2023/03/13 09:11:20;;;;;;;;;;;11.30;99.90;;;11.51;100.00;96678.34;5006089;28;1053;-70
2023/03/13 09:13:48;;;;;;;;;;;11.20;99.90;;;11.49;100.00;96671.59;4983953;28;1403;-71
2023/03/13 09:16:20;;;;;;;;;;;11.10;99.90;;;11.52;100.00;96650.63;4983787;28;1979;-70
2023/03/13 09:18:48;;;;;;;;;;;11.00;99.90;;;11.36;100.00;96668.06;4990030;28;1454;-70
2023/03/13 09:21:20;;;;;;;;;;;11.00;99.90;;;11.44;100.00;96787.97;4987010;28;1370;-71
2023/03/13 09:23:47;;;;;;;;;;;11.00;99.90;;;11.46;100.00;96732.38;4990623;28;1213;-71
2023/03/13 09:26:16;;;;;;;;;;;11.00;99.90;;;11.52;100.00;96731.19;4988966;28;1509;-70
2023/03/13 09:28:45;;;;;;;;;;;11.00;99.90;;;11.50;100.00;96714.84;4988368;28;1367;-71
2023/03/13 09:31:15;;;;;;;;;;;11.00;99.90;;;11.68;100.00;96710.31;4980029;28;1178;-71
2023/03/13 09:33:43;;;;;;;;;;;10.90;99.90;;;11.65;100.00;96711.31;4969103;28;1147;-71
2023/03/13 09:36:10;;;;;;;;;;;11.00;99.90;;;11.62;100.00;96711.50;4980868;28;1997;-71
2023/03/13 09:38:38;;;;;;;;;;;11.00;99.90;;;11.54;100.00;96710.28;4988627;28;1617;-71
2023/03/13 09:41:25;;;;;;;;;;;11.10;99.90;;;11.98;100.00;96673.81;4987148;28;1386;-71
2023/03/13 09:43:59;;;;;;;;;;;11.20;99.90;;;11.76;100.00;96671.66;4982590;28;1473;-70
2023/03/13 09:46:26;;;;;;;;;;;11.20;99.90;;;11.70;100.00;96659.06;4989028;28;1549;-71
2023/03/13 09:48:57;;;;;;;;;;;11.30;99.90;;;11.72;100.00;96619.03;4989202;28;1403;-70
2023/03/13 09:51:35;;;;;;;;;;;11.40;99.90;;;12.04;100.00;96620.56;5002856;28;1433;-70
2023/03/13 09:54:25;;;;;;;;;;;11.50;99.90;;;11.90;100.00;96598.03;4983969;28;1495;-70
2023/03/13 09:57:10;;;;;;;;;;;11.40;99.90;;;12.08;100.00;96576.03;4980581;28;1903;-70
2023/03/13 09:59:47;;;;;;;;;;;11.60;99.90;;;12.09;100.00;96569.91;5003266;28;1397;-69
2023/03/13 10:02:32;;;;;;;;;;;11.80;99.90;;;12.35;100.00;96555.19;4988283;28;1430;-70
2023/03/13 10:05:05;;;;;;;;;;;12.00;99.90;;;12.26;100.00;96554.97;4984115;28;1376;-70
2023/03/13 10:07:32;;;;;;;;;;;12.20;99.90;;;12.65;100.00;96543.66;4988709;28;1446;-70
2023/03/13 10:10:00;;;;;;;;;;;12.40;99.90;;;12.32;100.00;96534.59;5003034;28;1384;-70
2023/03/13 10:12:28;;;;;;;;;;;12.40;99.90;;;12.38;100.00;96528.13;4981340;28;1426;-70
2023/03/13 10:15:07;;;;;;;;;;;12.50;99.90;;;12.56;100.00;96513.88;4988456;28;1256;-70
2023/03/13 10:17:37;;;;;;;;;;;12.60;99.90;;;12.74;100.00;96514.41;4989486;28;1469;-70
2023/03/13 10:20:09;;;;;;;;;;;12.60;99.90;;;12.62;100.00;96520.47;4996935;28;1509;-70
2023/03/13 10:22:37;;;;;;;;;;;12.70;99.90;;;12.81;100.00;96494.00;4999565;28;1374;-70
2023/03/13 10:25:28;;;;;;;;;;;12.90;99.90;;;13.36;100.00;96497.16;4983852;28;1533;-70
2023/03/13 10:27:56;;;;;;;;;;;13.20;99.90;;;13.34;100.00;96506.84;4982477;28;1423;-70
2023/03/13 10:30:25;;;;;;;;;;;13.50;99.90;;;13.14;100.00;96482.19;4984240;28;1410;-70
2023/03/13 10:32:56;;;;;;;;;;;13.60;99.90;;;13.62;100.00;96461.41;4985713;28;1469;-71
2023/03/13 10:35:31;;;;;;;;;;;13.70;99.90;;;13.53;100.00;96485.53;4980516;28;1907;-70
2023/03/13 10:38:24;;;;;;;;;;;14.00;99.90;;;14.06;100.00;96453.84;4984494;28;1635;-70
2023/03/13 10:41:00;;;;;;;;;;;14.10;99.90;;;14.22;100.00;96464.81;4988547;28;1435;-71
2023/03/13 10:43:28;;;;;;;;;;;14.40;99.90;;;14.33;100.00;96446.56;4981911;28;1530;-70
2023/03/13 10:45:55;;;;;;;;;;;14.60;99.90;;;14.33;100.00;96437.91;4985150;28;1531;-70
2023/03/13 10:48:25;;;;;;;;;;;14.40;99.90;;;14.49;100.00;96419.28;4985291;28;1810;-70
2023/03/13 10:50:56;;;;;;;;;;;14.50;99.90;;;14.15;100.00;96411.41;4985146;28;1594;-70
2023/03/13 10:53:29;;;;;;;;;;;14.30;99.90;;;14.08;100.00;96434.53;4983310;28;1382;-70
2023/03/13 10:56:10;;;;;;;;;;;14.30;99.90;;;14.24;100.00;96426.38;4987528;28;1906;-71
2023/03/13 10:58:46;;;;;;;;;;;14.40;99.90;;;14.57;100.00;96393.44;4978696;28;1416;-71
2023/03/13 11:01:33;;;;;;;;;;;14.60;99.90;;;14.37;100.00;96408.00;4981614;28;1379;-70
2023/03/13 11:04:18;;;;;;;;;;;14.70;99.90;;;14.31;100.00;96383.19;4986136;28;1481;-70
2023/03/13 11:06:51;;;;;;;;;;;14.70;99.90;;;14.59;100.00;96381.91;4982728;28;1433;-71
2023/03/13 11:09:19;;;;;;;;;;;14.60;99.90;;;14.71;100.00;96389.75;5002295;28;1518;-70
2023/03/13 11:11:48;;;;;;;;;;;14.70;99.90;;;15.03;100.00;96374.16;4982587;28;1418;-70
2023/03/13 11:14:21;;;;;;;;;;;14.90;99.90;;;14.84;100.00;96378.22;4986634;28;1403;-70
2023/03/13 11:16:58;;;;;;;;;;;15.00;99.90;;;15.28;100.00;96357.34;4985468;28;1950;-69
2023/03/13 11:19:37;;;;;;;;;;;15.20;99.90;;;16.20;100.00;96356.75;4986591;28;1545;-69
2023/03/13 11:22:13;;;;;;;;;;;15.30;99.90;;;15.08;100.00;96369.41;4980938;28;1429;-70
2023/03/13 11:24:49;;;;;;;;;;;15.30;99.90;;;15.15;100.00;96383.63;4986031;28;1497;-69
2023/03/13 11:27:34;;;;;;;;;;;15.30;99.90;;;15.47;100.00;96354.88;4984194;28;1438;-69
2023/03/13 11:30:27;;;;;;;;;;;15.30;99.90;;;15.25;100.00;96357.56;4981638;28;1517;-69
2023/03/13 11:32:59;;;;;;;;;;;15.30;99.90;;;15.35;100.00;96349.81;4978943;28;1381;-68